sensor_id;sensor_type;location;lat;lon;timestamp;pressure;altitude;pressure_sealevel;temperature;humidity
55990;BME280;41875;55.806;38.082;2024-01-06T00:01:58;98943.59;;;-20.00;61.26
55990;BME280;41875;55.806;38.082;2024-01-06T00:05:03;98934.19;;;-20.15;61.55
55990;BME280;41875;55.806;38.082;2024-01-06T00:08:07;98936.78;;;-20.09;62.18
55990;BME280;41875;55.806;38.082;2024-01-06T00:11:11;98922.50;;;-20.10;62.63
55990;BME280;41875;55.806;38.082;2024-01-06T00:14:17;98919.13;;;-20.12;62.55
55990;BME280;41875;55.806;38.082;2024-01-06T00:17:23;98917.41;;;-20.15;62.55
55990;BME280;41875;55.806;38.082;2024-01-06T00:20:30;98914.31;;;-19.90;62.34
55990;BME280;41875;55.806;38.082;2024-01-06T00:23:39;98921.94;;;-19.76;61.97
55990;BME280;41875;55.806;38.082;2024-01-06T00:26:44;98907.47;;;-20.01;61.56
55990;BME280;41875;55.806;38.082;2024-01-06T00:29:50;98919.91;;;-20.18;61.79
55990;BME280;41875;55.806;38.082;2024-01-06T00:32:58;98913.19;;;-20.16;61.80
55990;BME280;41875;55.806;38.082;2024-01-06T00:36:02;98903.97;;;-20.15;62.13
55990;BME280;41875;55.806;38.082;2024-01-06T00:39:12;98911.84;;;-19.78;62.22
55990;BME280;41875;55.806;38.082;2024-01-06T00:42:17;98910.19;;;-19.74;61.67
55990;BME280;41875;55.806;38.082;2024-01-06T00:45:21;98895.25;;;-19.50;61.82
55990;BME280;41875;55.806;38.082;2024-01-06T00:48:29;98906.91;;;-19.64;60.81
55990;BME280;41875;55.806;38.082;2024-01-06T00:51:35;98894.34;;;-19.61;61.24
55990;BME280;41875;55.806;38.082;2024-01-06T00:54:41;98900.19;;;-19.67;60.75
55990;BME280;41875;55.806;38.082;2024-01-06T00:57:50;98905.09;;;-19.87;61.31
55990;BME280;41875;55.806;38.082;2024-01-06T01:00:59;98900.19;;;-19.68;61.80
55990;BME280;41875;55.806;38.082;2024-01-06T01:04:06;98914.06;;;-20.14;62.47
55990;BME280;41875;55.806;38.082;2024-01-06T01:07:10;98914.25;;;-20.71;64.63
55990;BME280;41875;55.806;38.082;2024-01-06T01:10:19;98912.31;;;-20.21;64.40
55990;BME280;41875;55.806;38.082;2024-01-06T01:13:23;98920.03;;;-20.05;64.14
55990;BME280;41875;55.806;38.082;2024-01-06T01:16:34;98919.22;;;-20.01;63.62
55990;BME280;41875;55.806;38.082;2024-01-06T01:19:41;98914.19;;;-20.01;62.67
55990;BME280;41875;55.806;38.082;2024-01-06T01:22:48;98927.53;;;-20.12;63.45
55990;BME280;41875;55.806;38.082;2024-01-06T01:25:53;98921.78;;;-19.97;63.99
55990;BME280;41875;55.806;38.082;2024-01-06T01:29:02;98917.69;;;-19.87;63.59
55990;BME280;41875;55.806;38.082;2024-01-06T01:32:06;98924.97;;;-20.15;63.91
55990;BME280;41875;55.806;38.082;2024-01-06T01:35:15;98925.94;;;-20.02;64.23
55990;BME280;41875;55.806;38.082;2024-01-06T01:38:23;98935.81;;;-20.22;64.42
55990;BME280;41875;55.806;38.082;2024-01-06T01:41:27;98926.78;;;-20.01;64.02
55990;BME280;41875;55.806;38.082;2024-01-06T01:44:31;98921.88;;;-19.86;63.71
55990;BME280;41875;55.806;38.082;2024-01-06T01:47:36;98924.22;;;-20.06;64.03
55990;BME280;41875;55.806;38.082;2024-01-06T01:50:47;98930.06;;;-20.10;64.13
55990;BME280;41875;55.806;38.082;2024-01-06T01:53:53;98920.19;;;-19.88;64.09
55990;BME280;41875;55.806;38.082;2024-01-06T01:56:58;98922.06;;;-19.61;63.81
55990;BME280;41875;55.806;38.082;2024-01-06T02:00:02;98916.31;;;-19.46;62.46
55990;BME280;41875;55.806;38.082;2024-01-06T02:03:09;98920.38;;;-19.64;62.72
55990;BME280;41875;55.806;38.082;2024-01-06T02:06:16;98913.94;;;-19.24;62.05
55990;BME280;41875;55.806;38.082;2024-01-06T02:09:22;98914.09;;;-19.01;61.78
55990;BME280;41875;55.806;38.082;2024-01-06T02:12:33;98910.72;;;-19.05;62.14
55990;BME280;41875;55.806;38.082;2024-01-06T02:15:37;98918.38;;;-18.80;62.25
55990;BME280;41875;55.806;38.082;2024-01-06T02:18:43;98915.94;;;-18.66;61.91
55990;BME280;41875;55.806;38.082;2024-01-06T02:21:52;98906.56;;;-18.99;62.14
55990;BME280;41875;55.806;38.082;2024-01-06T02:24:57;98903.31;;;-18.64;62.14
55990;BME280;41875;55.806;38.082;2024-01-06T02:28:02;98903.34;;;-18.52;62.13
55990;BME280;41875;55.806;38.082;2024-01-06T02:31:06;98893.22;;;-18.57;62.57
55990;BME280;41875;55.806;38.082;2024-01-06T02:34:17;98890.75;;;-18.47;62.70
55990;BME280;41875;55.806;38.082;2024-01-06T02:37:25;98899.13;;;-18.64;62.46
55990;BME280;41875;55.806;38.082;2024-01-06T02:40:30;98872.16;;;-18.69;63.38
55990;BME280;41875;55.806;38.082;2024-01-06T02:43:34;98906.75;;;-18.42;62.38
55990;BME280;41875;55.806;38.082;2024-01-06T02:46:39;98903.34;;;-18.53;62.23
55990;BME280;41875;55.806;38.082;2024-01-06T02:49:43;98879.78;;;-18.52;62.20
55990;BME280;41875;55.806;38.082;2024-01-06T02:52:49;98895.81;;;-18.41;62.70
55990;BME280;41875;55.806;38.082;2024-01-06T02:55:59;98905.00;;;-18.60;63.32
55990;BME280;41875;55.806;38.082;2024-01-06T02:59:03;98898.31;;;-18.49;62.91
55990;BME280;41875;55.806;38.082;2024-01-06T03:02:07;98905.06;;;-18.52;63.45
55990;BME280;41875;55.806;38.082;2024-01-06T03:05:14;98907.63;;;-18.42;62.31
55990;BME280;41875;55.806;38.082;2024-01-06T03:08:22;98923.44;;;-18.80;62.94
55990;BME280;41875;55.806;38.082;2024-01-06T03:11:26;98912.47;;;-18.82;64.08
55990;BME280;41875;55.806;38.082;2024-01-06T03:14:33;98903.06;;;-19.15;63.62
55990;BME280;41875;55.806;38.082;2024-01-06T03:17:39;98922.28;;;-19.35;63.44
55990;BME280;41875;55.806;38.082;2024-01-06T03:20:43;98914.81;;;-19.22;64.65
55990;BME280;41875;55.806;38.082;2024-01-06T03:23:51;98917.31;;;-19.28;64.09
55990;BME280;41875;55.806;38.082;2024-01-06T03:27:00;98902.69;;;-19.67;64.81
55990;BME280;41875;55.806;38.082;2024-01-06T03:30:10;98918.09;;;-19.33;65.17
55990;BME280;41875;55.806;38.082;2024-01-06T03:33:15;98902.06;;;-19.39;65.09
55990;BME280;41875;55.806;38.082;2024-01-06T03:36:19;98903.94;;;-19.15;64.87
55990;BME280;41875;55.806;38.082;2024-01-06T03:39:25;98905.72;;;-18.97;64.63
55990;BME280;41875;55.806;38.082;2024-01-06T03:42:29;98898.34;;;-18.43;63.53
55990;BME280;41875;55.806;38.082;2024-01-06T03:45:35;98900.78;;;-18.66;63.61
55990;BME280;41875;55.806;38.082;2024-01-06T03:48:40;98915.91;;;-18.67;63.14
55990;BME280;41875;55.806;38.082;2024-01-06T03:51:46;98913.44;;;-18.61;64.52
55990;BME280;41875;55.806;38.082;2024-01-06T03:54:52;98905.13;;;-18.38;64.11
55990;BME280;41875;55.806;38.082;2024-01-06T03:58:01;98911.00;;;-18.38;63.06
55990;BME280;41875;55.806;38.082;2024-01-06T04:01:05;98912.69;;;-18.42;63.25
55990;BME280;41875;55.806;38.082;2024-01-06T04:04:10;98906.00;;;-18.18;62.83
55990;BME280;41875;55.806;38.082;2024-01-06T04:07:14;98911.03;;;-18.26;63.37
55990;BME280;41875;55.806;38.082;2024-01-06T04:10:22;98905.16;;;-18.26;63.05
55990;BME280;41875;55.806;38.082;2024-01-06T04:13:27;98905.16;;;-18.21;62.61
55990;BME280;41875;55.806;38.082;2024-01-06T04:16:31;98902.63;;;-18.23;62.79
55990;BME280;41875;55.806;38.082;2024-01-06T04:19:35;98919.47;;;-18.23;62.65
55990;BME280;41875;55.806;38.082;2024-01-06T04:22:39;98932.09;;;-18.31;62.82
55990;BME280;41875;55.806;38.082;2024-01-06T04:25:47;98929.56;;;-18.22;64.07
55990;BME280;41875;55.806;38.082;2024-01-06T04:28:54;98922.88;;;-18.18;63.80
55990;BME280;41875;55.806;38.082;2024-01-06T04:31:58;98926.22;;;-18.24;63.87
55990;BME280;41875;55.806;38.082;2024-01-06T04:35:02;98918.66;;;-18.16;63.03
55990;BME280;41875;55.806;38.082;2024-01-06T04:38:08;98929.53;;;-18.30;63.23
55990;BME280;41875;55.806;38.082;2024-01-06T04:41:14;98914.34;;;-18.44;63.69
55990;BME280;41875;55.806;38.082;2024-01-06T04:44:23;98910.97;;;-18.50;63.36
55990;BME280;41875;55.806;38.082;2024-01-06T04:47:27;98906.81;;;-18.33;63.91
55990;BME280;41875;55.806;38.082;2024-01-06T04:50:33;98928.56;;;-18.64;64.29
55990;BME280;41875;55.806;38.082;2024-01-06T04:53:37;98930.22;;;-18.73;64.03
55990;BME280;41875;55.806;38.082;2024-01-06T04:56:44;98915.13;;;-18.57;64.61
55990;BME280;41875;55.806;38.082;2024-01-06T04:59:48;98929.50;;;-18.44;64.12
55990;BME280;41875;55.806;38.082;2024-01-06T05:02:52;98924.34;;;-18.72;64.50
55990;BME280;41875;55.806;38.082;2024-01-06T05:05:59;98922.78;;;-18.35;65.60
55990;BME280;41875;55.806;38.082;2024-01-06T05:09:09;98928.66;;;-18.46;64.37
55990;BME280;41875;55.806;38.082;2024-01-06T05:12:20;98928.69;;;-18.40;65.23
55990;BME280;41875;55.806;38.082;2024-01-06T05:15:24;98901.69;;;-18.50;64.94
55990;BME280;41875;55.806;38.082;2024-01-06T05:18:28;98932.13;;;-18.16;65.34
55990;BME280;41875;55.806;38.082;2024-01-06T05:21:32;98935.53;;;-18.07;64.25
55990;BME280;41875;55.806;38.082;2024-01-06T05:24:37;98932.09;;;-18.28;63.93
55990;BME280;41875;55.806;38.082;2024-01-06T05:27:43;98943.13;;;-18.07;63.63
55990;BME280;41875;55.806;38.082;2024-01-06T05:30:48;98945.59;;;-18.20;64.13
55990;BME280;41875;55.806;38.082;2024-01-06T05:33:52;98925.38;;;-18.25;64.41
55990;BME280;41875;55.806;38.082;2024-01-06T05:36:57;98937.13;;;-18.37;64.02
55990;BME280;41875;55.806;38.082;2024-01-06T05:40:05;98945.53;;;-18.40;64.37
55990;BME280;41875;55.806;38.082;2024-01-06T05:43:11;98960.66;;;-18.45;64.38
55990;BME280;41875;55.806;38.082;2024-01-06T05:46:21;98950.63;;;-18.34;64.32
55990;BME280;41875;55.806;38.082;2024-01-06T05:49:25;98948.13;;;-18.20;64.39
55990;BME280;41875;55.806;38.082;2024-01-06T05:52:29;98958.16;;;-18.40;64.09
55990;BME280;41875;55.806;38.082;2024-01-06T05:55:36;98963.25;;;-18.38;63.99
55990;BME280;41875;55.806;38.082;2024-01-06T05:58:42;98953.84;;;-18.60;64.48
55990;BME280;41875;55.806;38.082;2024-01-06T06:01:46;98959.78;;;-18.50;64.36
55990;BME280;41875;55.806;38.082;2024-01-06T06:04:50;98956.38;;;-18.63;64.26
55990;BME280;41875;55.806;38.082;2024-01-06T06:07:55;98946.19;;;-18.77;64.52
55990;BME280;41875;55.806;38.082;2024-01-06T06:10:59;98961.34;;;-18.78;65.03
55990;BME280;41875;55.806;38.082;2024-01-06T06:14:14;98948.75;;;-18.74;65.03
55990;BME280;41875;55.806;38.082;2024-01-06T06:17:18;98957.25;;;-18.56;64.51
55990;BME280;41875;55.806;38.082;2024-01-06T06:20:22;98955.63;;;-18.40;64.34
55990;BME280;41875;55.806;38.082;2024-01-06T06:23:26;98948.09;;;-18.29;65.35
55990;BME280;41875;55.806;38.082;2024-01-06T06:26:32;98960.75;;;-18.31;64.68
55990;BME280;41875;55.806;38.082;2024-01-06T06:29:37;98960.00;;;-18.00;64.78
55990;BME280;41875;55.806;38.082;2024-01-06T06:32:41;98960.00;;;-17.75;64.64
55990;BME280;41875;55.806;38.082;2024-01-06T06:35:45;98960.84;;;-17.95;63.47
55990;BME280;41875;55.806;38.082;2024-01-06T06:38:49;98959.97;;;-18.13;63.06
55990;BME280;41875;55.806;38.082;2024-01-06T06:41:53;98954.94;;;-17.89;63.38
55990;BME280;41875;55.806;38.082;2024-01-06T06:44:58;98972.56;;;-18.14;64.31
55990;BME280;41875;55.806;38.082;2024-01-06T06:48:03;98975.13;;;-18.17;64.00
55990;BME280;41875;55.806;38.082;2024-01-06T06:51:07;98974.19;;;-18.40;63.74
55990;BME280;41875;55.806;38.082;2024-01-06T06:54:11;98972.59;;;-18.13;63.02
55990;BME280;41875;55.806;38.082;2024-01-06T06:57:15;98982.69;;;-18.16;63.88
55990;BME280;41875;55.806;38.082;2024-01-06T07:00:21;98980.91;;;-18.46;64.14
55990;BME280;41875;55.806;38.082;2024-01-06T07:03:25;98991.16;;;-18.06;63.50
55990;BME280;41875;55.806;38.082;2024-01-06T07:06:32;98985.28;;;-17.92;63.31
55990;BME280;41875;55.806;38.082;2024-01-06T07:09:36;98990.34;;;-18.00;63.89
55990;BME280;41875;55.806;38.082;2024-01-06T07:12:40;98995.47;;;-17.66;63.14
55990;BME280;41875;55.806;38.082;2024-01-06T07:15:45;98992.88;;;-17.83;63.89
55990;BME280;41875;55.806;38.082;2024-01-06T07:18:53;98995.44;;;-17.82;63.66
55990;BME280;41875;55.806;38.082;2024-01-06T07:21:57;98989.59;;;-17.36;63.11
55990;BME280;41875;55.806;38.082;2024-01-06T07:25:01;98997.16;;;-17.65;62.92
55990;BME280;41875;55.806;38.082;2024-01-06T07:28:05;99003.88;;;-17.78;63.60
55990;BME280;41875;55.806;38.082;2024-01-06T07:31:12;99003.81;;;-17.94;64.12
55990;BME280;41875;55.806;38.082;2024-01-06T07:34:16;98985.41;;;-17.24;63.12
55990;BME280;41875;55.806;38.082;2024-01-06T07:37:20;98995.53;;;-17.07;61.96
55990;BME280;41875;55.806;38.082;2024-01-06T07:40:24;99010.63;;;-17.68;63.31
55990;BME280;41875;55.806;38.082;2024-01-06T07:43:28;99000.56;;;-16.89;62.37
55990;BME280;41875;55.806;38.082;2024-01-06T07:46:34;99005.56;;;-16.55;61.54
55990;BME280;41875;55.806;38.082;2024-01-06T07:49:39;98992.97;;;-16.98;61.52
55990;BME280;41875;55.806;38.082;2024-01-06T07:52:45;98991.22;;;-16.51;61.21
55990;BME280;41875;55.806;38.082;2024-01-06T07:55:51;98995.50;;;-16.98;61.84
55990;BME280;41875;55.806;38.082;2024-01-06T07:58:55;98988.72;;;-16.69;61.84
55990;BME280;41875;55.806;38.082;2024-01-06T08:02:00;98986.97;;;-16.53;61.48
55990;BME280;41875;55.806;38.082;2024-01-06T08:05:04;98986.88;;;-16.22;61.31
55990;BME280;41875;55.806;38.082;2024-01-06T08:08:09;98992.03;;;-16.41;60.02
55990;BME280;41875;55.806;38.082;2024-01-06T08:11:15;98992.84;;;-16.36;60.52
55990;BME280;41875;55.806;38.082;2024-01-06T08:14:21;98994.59;;;-16.69;61.87
55990;BME280;41875;55.806;38.082;2024-01-06T08:17:30;99008.88;;;-16.26;61.94
55990;BME280;41875;55.806;38.082;2024-01-06T08:20:36;98979.47;;;-17.17;61.90
55990;BME280;41875;55.806;38.082;2024-01-06T08:23:43;98987.06;;;-17.20;63.89
55990;BME280;41875;55.806;38.082;2024-01-06T08:26:48;98998.06;;;-17.04;63.35
55990;BME280;41875;55.806;38.082;2024-01-06T08:29:55;98980.22;;;-16.59;62.35
55990;BME280;41875;55.806;38.082;2024-01-06T08:33:00;98965.84;;;-16.49;61.80
55990;BME280;41875;55.806;38.082;2024-01-06T08:36:08;98971.44;;;-15.79;60.20
55990;BME280;41875;55.806;38.082;2024-01-06T08:39:16;98968.00;;;-15.67;59.53
55990;BME280;41875;55.806;38.082;2024-01-06T08:42:21;98948.72;;;-15.96;59.05
55990;BME280;41875;55.806;38.082;2024-01-06T08:45:30;98960.34;;;-15.63;59.41
55990;BME280;41875;55.806;38.082;2024-01-06T08:48:38;98957.38;;;-16.47;61.31
55990;BME280;41875;55.806;38.082;2024-01-06T08:51:45;98964.78;;;-15.94;60.62
55990;BME280;41875;55.806;38.082;2024-01-06T08:54:49;98962.53;;;-16.72;61.15
55990;BME280;41875;55.806;38.082;2024-01-06T08:57:53;98966.56;;;-16.18;61.38
55990;BME280;41875;55.806;38.082;2024-01-06T09:01:08;98960.09;;;-17.17;62.08
55990;BME280;41875;55.806;38.082;2024-01-06T09:04:13;98946.56;;;-17.56;64.36
55990;BME280;41875;55.806;38.082;2024-01-06T09:07:18;98955.75;;;-16.59;62.79
55990;BME280;41875;55.806;38.082;2024-01-06T09:10:33;98953.06;;;-16.21;61.66
55990;BME280;41875;55.806;38.082;2024-01-06T09:13:40;98950.03;;;-15.42;60.96
55990;BME280;41875;55.806;38.082;2024-01-06T09:16:46;98937.50;;;-15.64;59.48
55990;BME280;41875;55.806;38.082;2024-01-06T09:19:55;98948.44;;;-15.51;60.15
55990;BME280;41875;55.806;38.082;2024-01-06T09:23:01;98962.97;;;-15.78;59.92
55990;BME280;41875;55.806;38.082;2024-01-06T09:26:05;98970.41;;;-15.47;60.05
55990;BME280;41875;55.806;38.082;2024-01-06T09:29:08;98956.75;;;-15.29;59.09
55990;BME280;41875;55.806;38.082;2024-01-06T09:32:14;98964.53;;;-15.55;59.16
55990;BME280;41875;55.806;38.082;2024-01-06T09:35:19;98970.53;;;-15.67;59.67
55990;BME280;41875;55.806;38.082;2024-01-06T09:38:24;98964.19;;;-15.10;60.13
55990;BME280;41875;55.806;38.082;2024-01-06T09:41:28;98948.88;;;-15.03;58.83
55990;BME280;41875;55.806;38.082;2024-01-06T09:44:32;98946.34;;;-15.03;57.97
55990;BME280;41875;55.806;38.082;2024-01-06T09:47:41;98949.72;;;-15.00;58.41
55990;BME280;41875;55.806;38.082;2024-01-06T09:50:56;98945.16;;;-15.69;59.56
55990;BME280;41875;55.806;38.082;2024-01-06T09:54:00;98940.03;;;-15.61;59.63
55990;BME280;41875;55.806;38.082;2024-01-06T09:57:04;98934.00;;;-15.46;59.32
55990;BME280;41875;55.806;38.082;2024-01-06T10:00:13;98948.78;;;-16.08;61.05
55990;BME280;41875;55.806;38.082;2024-01-06T10:03:17;98939.03;;;-15.41;59.88
55990;BME280;41875;55.806;38.082;2024-01-06T10:06:23;98936.16;;;-16.16;61.10
55990;BME280;41875;55.806;38.082;2024-01-06T10:09:27;98935.78;;;-15.57;60.47
55990;BME280;41875;55.806;38.082;2024-01-06T10:12:34;98927.78;;;-15.11;60.14
55990;BME280;41875;55.806;38.082;2024-01-06T10:15:43;98936.09;;;-16.05;61.10
55990;BME280;41875;55.806;38.082;2024-01-06T10:18:47;98923.41;;;-16.05;63.51
55990;BME280;41875;55.806;38.082;2024-01-06T10:21:59;98937.50;;;-15.64;62.12
55990;BME280;41875;55.806;38.082;2024-01-06T10:25:08;98936.75;;;-15.75;61.24
55990;BME280;41875;55.806;38.082;2024-01-06T10:28:12;98928.28;;;-15.76;61.62
55990;BME280;41875;55.806;38.082;2024-01-06T10:31:18;98932.25;;;-15.42;61.08
55990;BME280;41875;55.806;38.082;2024-01-06T10:34:24;98919.56;;;-15.38;60.24
55990;BME280;41875;55.806;38.082;2024-01-06T10:37:31;98922.91;;;-14.50;59.85
55990;BME280;41875;55.806;38.082;2024-01-06T10:40:37;98919.09;;;-14.87;58.92
55990;BME280;41875;55.806;38.082;2024-01-06T10:43:42;98916.31;;;-15.58;59.95
55990;BME280;41875;55.806;38.082;2024-01-06T10:46:55;98905.53;;;-15.85;62.41
55990;BME280;41875;55.806;38.082;2024-01-06T10:50:07;98907.44;;;-15.08;61.35
55990;BME280;41875;55.806;38.082;2024-01-06T10:53:31;98913.28;;;-14.99;60.75
55990;BME280;41875;55.806;38.082;2024-01-06T10:56:37;98917.59;;;-15.08;61.12
55990;BME280;41875;55.806;38.082;2024-01-06T10:59:45;98915.09;;;-15.14;60.04
55990;BME280;41875;55.806;38.082;2024-01-06T11:02:52;98911.03;;;-15.29;60.55
55990;BME280;41875;55.806;38.082;2024-01-06T11:05:58;98914.84;;;-15.87;62.26
55990;BME280;41875;55.806;38.082;2024-01-06T11:09:14;98901.84;;;-15.49;62.29
55990;BME280;41875;55.806;38.082;2024-01-06T11:12:20;98912.53;;;-15.08;62.05
55990;BME280;41875;55.806;38.082;2024-01-06T11:15:46;98910.31;;;-14.61;61.23
55990;BME280;41875;55.806;38.082;2024-01-06T11:18:53;98907.47;;;-15.11;60.57
55990;BME280;41875;55.806;38.082;2024-01-06T11:22:20;98911.16;;;-15.49;60.74
55990;BME280;41875;55.806;38.082;2024-01-06T11:25:26;98909.72;;;-15.84;62.76
55990;BME280;41875;55.806;38.082;2024-01-06T11:28:43;98924.06;;;-15.75;62.96
55990;BME280;41875;55.806;38.082;2024-01-06T11:32:18;98922.97;;;-15.45;62.99
55990;BME280;41875;55.806;38.082;2024-01-06T11:35:27;98904.09;;;-15.13;62.65
55990;BME280;41875;55.806;38.082;2024-01-06T11:38:33;98916.97;;;-15.35;61.62
55990;BME280;41875;55.806;38.082;2024-01-06T11:41:49;98913.28;;;-14.98;62.17
55990;BME280;41875;55.806;38.082;2024-01-06T11:45:01;98897.63;;;-15.46;61.79
55990;BME280;41875;55.806;38.082;2024-01-06T11:48:07;98912.16;;;-14.69;61.67
55990;BME280;41875;55.806;38.082;2024-01-06T11:51:12;98904.53;;;-14.72;61.64
55990;BME280;41875;55.806;38.082;2024-01-06T11:54:19;98917.06;;;-14.58;60.79
55990;BME280;41875;55.806;38.082;2024-01-06T11:57:28;98907.28;;;-14.92;61.42
55990;BME280;41875;55.806;38.082;2024-01-06T12:00:35;98904.84;;;-15.05;61.61
55990;BME280;41875;55.806;38.082;2024-01-06T12:03:42;98913.28;;;-14.98;62.01
55990;BME280;41875;55.806;38.082;2024-01-06T12:06:51;98901.88;;;-15.50;62.51
55990;BME280;41875;55.806;38.082;2024-01-06T12:10:01;98910.41;;;-15.59;62.72
55990;BME280;41875;55.806;38.082;2024-01-06T12:13:12;98915.09;;;-15.14;63.13
55990;BME280;41875;55.806;38.082;2024-01-06T12:16:20;98919.47;;;-15.32;63.56
55990;BME280;41875;55.806;38.082;2024-01-06T12:19:33;98925.09;;;-16.04;64.04
55990;BME280;41875;55.806;38.082;2024-01-06T12:22:44;98921.47;;;-15.72;64.43
55990;BME280;41875;55.806;38.082;2024-01-06T12:26:31;98940.03;;;-15.58;63.59
55990;BME280;41875;55.806;38.082;2024-01-06T12:29:44;98933.00;;;-15.26;62.89
55990;BME280;41875;55.806;38.082;2024-01-06T12:32:59;98946.56;;;-15.27;62.14
55990;BME280;41875;55.806;38.082;2024-01-06T12:36:07;98954.94;;;-15.19;61.75
55990;BME280;41875;55.806;38.082;2024-01-06T12:39:38;98937.50;;;-15.61;62.71
55990;BME280;41875;55.806;38.082;2024-01-06T12:42:48;98959.38;;;-15.46;63.35
55990;BME280;41875;55.806;38.082;2024-01-06T12:45:54;98960.13;;;-15.32;64.31
55990;BME280;41875;55.806;38.082;2024-01-06T12:49:00;98951.09;;;-15.71;63.59
55990;BME280;41875;55.806;38.082;2024-01-06T12:52:09;98943.94;;;-16.67;65.93
55990;BME280;41875;55.806;38.082;2024-01-06T12:55:16;98942.25;;;-16.76;66.96
55990;BME280;41875;55.806;38.082;2024-01-06T12:58:20;98945.63;;;-16.77;67.64
55990;BME280;41875;55.806;38.082;2024-01-06T13:01:29;98932.00;;;-16.39;68.06
55990;BME280;41875;55.806;38.082;2024-01-06T13:04:37;98940.13;;;-15.75;65.53
55990;BME280;41875;55.806;38.082;2024-01-06T13:07:45;98940.22;;;-15.87;64.66
55990;BME280;41875;55.806;38.082;2024-01-06T13:10:49;98947.00;;;-15.92;64.82
55990;BME280;41875;55.806;38.082;2024-01-06T13:13:55;98940.84;;;-15.54;64.77
55990;BME280;41875;55.806;38.082;2024-01-06T13:17:03;98940.69;;;-15.37;64.49
55990;BME280;41875;55.806;38.082;2024-01-06T13:20:11;98946.69;;;-15.49;64.53
55990;BME280;41875;55.806;38.082;2024-01-06T13:23:15;98953.31;;;-15.25;63.50
55990;BME280;41875;55.806;38.082;2024-01-06T13:26:22;98951.66;;;-15.30;63.95
55990;BME280;41875;55.806;38.082;2024-01-06T13:29:30;98958.16;;;-14.97;63.15
55990;BME280;41875;55.806;38.082;2024-01-06T13:32:40;98957.69;;;-15.47;63.18
55990;BME280;41875;55.806;38.082;2024-01-06T13:35:44;98954.09;;;-15.17;64.22
55990;BME280;41875;55.806;38.082;2024-01-06T13:38:49;98939.06;;;-15.44;62.80
55990;BME280;41875;55.806;38.082;2024-01-06T13:41:53;98960.03;;;-15.19;63.16
55990;BME280;41875;55.806;38.082;2024-01-06T13:44:57;98944.34;;;-15.80;63.70
55990;BME280;41875;55.806;38.082;2024-01-06T13:48:08;98951.72;;;-15.37;63.84
55990;BME280;41875;55.806;38.082;2024-01-06T13:51:15;98952.50;;;-15.30;63.01
55990;BME280;41875;55.806;38.082;2024-01-06T13:54:20;98970.94;;;-15.03;63.16
55990;BME280;41875;55.806;38.082;2024-01-06T13:57:25;98956.91;;;-15.57;62.87
55990;BME280;41875;55.806;38.082;2024-01-06T14:00:30;98944.38;;;-15.79;64.17
55990;BME280;41875;55.806;38.082;2024-01-06T14:03:36;98961.75;;;-15.21;63.39
55990;BME280;41875;55.806;38.082;2024-01-06T14:06:40;98972.88;;;-15.39;63.80
55990;BME280;41875;55.806;38.082;2024-01-06T14:09:48;98976.22;;;-15.28;63.77
55990;BME280;41875;55.806;38.082;2024-01-06T14:12:53;98976.41;;;-15.59;64.26
55990;BME280;41875;55.806;38.082;2024-01-06T14:16:00;98978.31;;;-15.94;64.38
55990;BME280;41875;55.806;38.082;2024-01-06T14:19:12;98975.47;;;-15.47;64.48
55990;BME280;41875;55.806;38.082;2024-01-06T14:22:20;98964.31;;;-15.26;64.26
55990;BME280;41875;55.806;38.082;2024-01-06T14:25:31;98970.41;;;-15.47;64.30
55990;BME280;41875;55.806;38.082;2024-01-06T14:28:35;98979.72;;;-15.44;64.03
55990;BME280;41875;55.806;38.082;2024-01-06T14:31:43;98984.81;;;-15.48;64.29
55990;BME280;41875;55.806;38.082;2024-01-06T14:34:52;98980.31;;;-15.13;64.06
55990;BME280;41875;55.806;38.082;2024-01-06T14:37:56;98983.56;;;-14.95;63.87
55990;BME280;41875;55.806;38.082;2024-01-06T14:41:00;98986.19;;;-15.06;63.50
55990;BME280;41875;55.806;38.082;2024-01-06T14:44:04;98978.53;;;-15.05;63.52
55990;BME280;41875;55.806;38.082;2024-01-06T14:47:13;98983.59;;;-14.98;63.48
55990;BME280;41875;55.806;38.082;2024-01-06T14:50:26;98987.78;;;-14.91;62.79
55990;BME280;41875;55.806;38.082;2024-01-06T14:53:34;98990.44;;;-15.07;62.92
55990;BME280;41875;55.806;38.082;2024-01-06T14:56:38;98998.28;;;-15.42;63.84
55990;BME280;41875;55.806;38.082;2024-01-06T14:59:59;99005.81;;;-15.25;64.50
55990;BME280;41875;55.806;38.082;2024-01-06T15:03:07;99000.25;;;-15.85;64.85
55990;BME280;41875;55.806;38.082;2024-01-06T15:06:18;99004.47;;;-15.84;66.19
55990;BME280;41875;55.806;38.082;2024-01-06T15:09:23;99009.47;;;-15.70;65.85
55990;BME280;41875;55.806;38.082;2024-01-06T15:12:29;99010.09;;;-15.34;65.43
55990;BME280;41875;55.806;38.082;2024-01-06T15:15:34;99009.34;;;-15.50;64.66
55990;BME280;41875;55.806;38.082;2024-01-06T15:18:39;99004.31;;;-15.54;64.96
55990;BME280;41875;55.806;38.082;2024-01-06T15:21:52;99008.66;;;-15.78;66.02
55990;BME280;41875;55.806;38.082;2024-01-06T15:24:58;99009.50;;;-15.74;65.66
55990;BME280;41875;55.806;38.082;2024-01-06T15:28:08;98996.47;;;-15.22;64.27
55990;BME280;41875;55.806;38.082;2024-01-06T15:31:17;99009.63;;;-14.70;63.74
55990;BME280;41875;55.806;38.082;2024-01-06T15:34:24;99012.59;;;-15.26;63.37
55990;BME280;41875;55.806;38.082;2024-01-06T15:37:32;99000.72;;;-15.24;64.17
55990;BME280;41875;55.806;38.082;2024-01-06T15:40:38;99007.53;;;-15.29;65.17
55990;BME280;41875;55.806;38.082;2024-01-06T15:43:43;99015.25;;;-15.44;65.78
55990;BME280;41875;55.806;38.082;2024-01-06T15:46:49;99012.19;;;-16.07;66.48
55990;BME280;41875;55.806;38.082;2024-01-06T15:49:54;99014.78;;;-16.22;69.00
55990;BME280;41875;55.806;38.082;2024-01-06T15:53:08;99029.94;;;-15.99;69.54
55990;BME280;41875;55.806;38.082;2024-01-06T15:56:19;99035.94;;;-16.39;69.49
55990;BME280;41875;55.806;38.082;2024-01-06T15:59:24;99032.56;;;-16.27;68.91
55990;BME280;41875;55.806;38.082;2024-01-06T16:02:32;99040.06;;;-16.02;68.18
55990;BME280;41875;55.806;38.082;2024-01-06T16:05:36;99041.78;;;-16.01;66.30